createdAt,value
2022-09-07T00:02:06.591Z,6.47
2022-09-07T00:04:33.574Z,7.05
2022-09-07T00:07:00.671Z,6.57
2022-09-07T00:09:27.656Z,6.43
2022-09-07T00:11:54.780Z,6.70
2022-09-07T00:14:21.703Z,6.82
2022-09-07T00:16:48.667Z,7.15
2022-09-07T00:23:15.012Z,6.38
2022-09-07T00:25:41.979Z,6.95
2022-09-07T00:28:09.331Z,6.72
2022-09-07T00:30:42.347Z,6.88
2022-09-07T00:33:09.934Z,7.47
2022-09-07T00:35:41.507Z,7.10
2022-09-07T00:38:08.663Z,6.80
2022-09-07T00:40:35.991Z,7.10
2022-09-07T00:43:03.238Z,7.65
2022-09-07T00:53:38.464Z,7.10
2022-09-07T00:58:36.115Z,7.55
2022-09-07T01:01:03.455Z,7.18
2022-09-07T01:03:35.140Z,7.30
2022-09-07T01:06:25.174Z,6.93
2022-09-07T01:08:53.446Z,6.80
2022-09-07T01:11:22.661Z,7.25
2022-09-07T01:13:51.084Z,7.20
2022-09-07T01:16:43.187Z,7.32
2022-09-07T01:19:37.884Z,7.57
2022-09-07T01:22:23.592Z,7.15
2022-09-07T01:24:56.227Z,7.45
2022-09-07T01:27:43.051Z,7.53
2022-09-07T01:30:12.764Z,7.85
2022-09-07T01:32:51.755Z,7.32
2022-09-07T01:35:46.424Z,7.95
2022-09-07T01:38:34.974Z,7.25
2022-09-07T01:41:18.272Z,7.82
2022-09-07T01:43:48.148Z,7.40
2022-09-07T01:46:21.225Z,7.00
2022-09-07T01:48:52.870Z,7.18
2022-09-07T01:51:22.995Z,7.93
2022-09-07T01:54:01.096Z,8.40
2022-09-07T01:56:38.855Z,7.40
2022-09-07T01:59:17.260Z,7.28
2022-09-07T02:02:07.552Z,7.88
2022-09-07T02:04:49.598Z,8.05
2022-09-07T02:07:26.699Z,8.13
2022-09-07T02:10:05.522Z,7.40
2022-09-07T02:13:07.099Z,8.68
2022-09-07T02:15:50.425Z,8.43
2022-09-07T02:18:19.780Z,7.93
2022-09-07T02:20:50.974Z,8.55
2022-09-07T02:23:21.723Z,8.60
2022-09-07T02:26:02.945Z,9.02
2022-09-07T02:28:33.989Z,9.77
2022-09-07T02:31:01.877Z,9.73
2022-09-07T02:33:29.574Z,10.65
2022-09-07T02:35:57.421Z,9.82
2022-09-07T02:38:25.349Z,10.05
2022-09-07T02:40:57.410Z,9.93
2022-09-07T02:43:25.382Z,10.63
2022-09-07T02:45:52.216Z,10.57
2022-09-07T02:48:52.536Z,10.55
2022-09-07T02:51:36.390Z,11.43
2022-09-07T02:54:21.890Z,10.40
2022-09-07T02:57:17.611Z,11.57
2022-09-07T03:00:01.527Z,11.32
2022-09-07T03:03:00.155Z,11.05
2022-09-07T03:05:36.212Z,10.65
2022-09-07T03:08:09.122Z,11.45
2022-09-07T03:10:39.117Z,11.60
2022-09-07T03:13:06.286Z,11.30
2022-09-07T03:15:33.347Z,11.23
2022-09-07T03:18:00.265Z,10.98
2022-09-07T03:20:27.166Z,11.07
2022-09-07T03:22:54.008Z,12.45
2022-09-07T03:25:21.979Z,11.98
2022-09-07T03:27:48.963Z,11.65
2022-09-07T03:30:15.957Z,12.60
2022-09-07T03:32:42.822Z,12.75
2022-09-07T03:35:14.621Z,13.55
2022-09-07T03:37:41.859Z,12.57
2022-09-07T03:40:11.490Z,12.65
2022-09-07T03:42:38.896Z,13.40
2022-09-07T03:45:07.082Z,13.90
2022-09-07T03:47:35.347Z,14.02
2022-09-07T03:50:02.606Z,13.68
2022-09-07T03:52:29.467Z,14.27
2022-09-07T03:54:56.346Z,15.40
2022-09-07T03:57:23.305Z,15.40
2022-09-07T03:59:50.622Z,16.05
2022-09-07T04:02:17.834Z,15.32
2022-09-07T04:04:46.154Z,15.43
2022-09-07T04:07:14.161Z,14.98
2022-09-07T04:09:41.521Z,14.57
2022-09-07T04:12:08.668Z,15.52
2022-09-07T04:14:35.681Z,14.65
2022-09-07T04:17:02.656Z,16.55
2022-09-07T04:19:30.136Z,15.60
2022-09-07T04:21:57.057Z,17.30
2022-09-07T04:24:23.945Z,17.30
2022-09-07T04:26:50.813Z,16.83
2022-09-07T04:29:17.689Z,17.08
2022-09-07T04:31:44.531Z,17.08
2022-09-07T04:34:12.368Z,16.85
2022-09-07T04:36:39.190Z,17.70
2022-09-07T04:39:06.193Z,17.45
2022-09-07T04:41:34.957Z,17.98
2022-09-07T04:44:03.454Z,17.63
2022-09-07T04:46:33.815Z,18.75
2022-09-07T04:49:06.842Z,19.45
2022-09-07T04:51:34.251Z,18.77
2022-09-07T04:54:02.837Z,20.88
2022-09-07T04:56:30.625Z,21.55
2022-09-07T04:58:57.635Z,21.00
2022-09-07T05:01:26.126Z,21.42
2022-09-07T05:03:53.898Z,20.80
2022-09-07T05:06:22.376Z,22.08
2022-09-07T05:08:53.621Z,21.10
2022-09-07T05:11:27.959Z,21.45
2022-09-07T05:14:00.400Z,21.75
2022-09-07T05:16:27.914Z,21.30
2022-09-07T05:19:01.296Z,20.27
2022-09-07T05:21:30.686Z,20.52
2022-09-07T05:23:58.608Z,20.65
2022-09-07T05:26:28.145Z,21.40
2022-09-07T05:31:43.951Z,21.20
2022-09-07T05:36:58.556Z,19.63
2022-09-07T05:39:25.587Z,20.77
2022-09-07T05:41:52.638Z,22.13
2022-09-07T05:47:07.018Z,21.38
2022-09-07T05:49:34.082Z,21.45
2022-09-07T05:52:01.048Z,21.23
2022-09-07T05:54:27.884Z,21.80
2022-09-07T05:56:54.816Z,21.98
2022-09-07T05:59:21.704Z,22.33
2022-09-07T06:01:48.723Z,21.08
2022-09-07T06:04:15.663Z,21.85
2022-09-07T06:06:47.794Z,20.70
2022-09-07T06:09:29.840Z,20.38
2022-09-07T06:11:57.525Z,20.23
2022-09-07T06:14:24.993Z,21.33
2022-09-07T06:16:51.896Z,19.70
2022-09-07T06:19:18.788Z,20.55
2022-09-07T06:21:45.691Z,21.30
2022-09-07T06:24:12.528Z,20.88
2022-09-07T06:26:39.485Z,20.10
2022-09-07T06:29:06.308Z,20.25
2022-09-07T06:31:33.257Z,21.15
2022-09-07T06:34:00.457Z,21.35
2022-09-07T06:36:28.183Z,20.63
2022-09-07T06:38:58.952Z,20.02
2022-09-07T06:44:20.031Z,19.25
2022-09-07T06:49:29.586Z,18.33
2022-09-07T06:51:56.516Z,20.45
2022-09-07T06:57:10.323Z,20.00
2022-09-07T06:59:37.803Z,19.98
2022-09-07T07:02:05.813Z,19.48
2022-09-07T07:04:37.743Z,19.77
2022-09-07T07:07:11.725Z,19.95
2022-09-07T07:09:38.953Z,19.77
2022-09-07T07:12:05.986Z,18.27
2022-09-07T07:14:34.638Z,17.10
2022-09-07T07:17:03.320Z,16.58
2022-09-07T07:19:30.285Z,19.10
2022-09-07T07:24:44.083Z,17.73
2022-09-07T07:27:10.962Z,16.77
2022-09-07T07:29:37.793Z,18.35
2022-09-07T07:32:05.254Z,16.42
2022-09-07T07:34:32.193Z,17.05
2022-09-07T07:36:59.058Z,16.92
2022-09-07T07:42:12.636Z,15.80
2022-09-07T07:44:39.429Z,14.95
2022-09-07T07:47:06.425Z,15.40
2022-09-07T07:49:33.272Z,15.15
2022-09-07T07:54:48.070Z,13.95
2022-09-07T07:57:16.983Z,12.73
2022-09-07T07:59:43.772Z,11.40
2022-09-07T08:02:15.846Z,10.75
2022-09-07T08:04:43.057Z,11.05
2022-09-07T08:07:11.950Z,10.07
2022-09-07T08:09:44.165Z,10.20
2022-09-07T08:12:13.525Z,9.35
2022-09-07T08:14:41.529Z,7.40
2022-09-07T08:17:10.237Z,7.40
2022-09-07T08:19:37.231Z,7.75
2022-09-07T08:22:04.047Z,8.10
2022-09-07T08:24:32.035Z,8.13
2022-09-07T08:26:58.977Z,8.00
2022-09-07T08:29:27.142Z,7.40
2022-09-07T08:31:54.396Z,7.55
2022-09-07T08:34:21.966Z,7.25
2022-09-07T08:36:48.988Z,6.72
2022-09-07T08:39:15.935Z,6.97
2022-09-07T08:42:03.062Z,6.45
2022-09-07T08:44:48.745Z,5.43
2022-09-07T08:47:34.397Z,5.63
2022-09-07T08:50:23.925Z,5.63
2022-09-07T08:52:56.937Z,4.53
2022-09-07T08:55:40.349Z,5.63
2022-09-07T08:58:27.106Z,5.20
2022-09-07T09:06:56.396Z,4.75
2022-09-07T09:09:41.620Z,3.63
2022-09-07T09:12:17.340Z,3.50
2022-09-07T09:15:03.055Z,3.00
2022-09-07T09:20:15.275Z,2.88
2022-09-07T09:22:43.148Z,3.20
2022-09-07T09:25:18.525Z,2.95
2022-09-07T09:30:15.220Z,4.72
2022-09-07T09:32:44.233Z,3.80
2022-09-07T09:35:19.688Z,3.50
2022-09-07T09:37:46.713Z,3.40
2022-09-07T09:40:23.572Z,3.38
2022-09-07T09:43:01.825Z,4.00
2022-09-07T09:46:12.115Z,4.63
2022-09-07T09:48:34.505Z,4.20
2022-09-07T09:54:07.672Z,3.80
2022-09-07T09:56:45.468Z,3.90
2022-09-07T10:05:28.334Z,4.40
2022-09-07T10:07:56.308Z,3.83
2022-09-07T10:10:23.424Z,3.72
2022-09-07T10:12:54.259Z,3.75
2022-09-07T10:15:33.690Z,3.70
2022-09-07T10:18:06.159Z,4.07
2022-09-07T10:20:36.809Z,4.15
2022-09-07T10:23:06.264Z,4.22
2022-09-07T10:25:41.868Z,4.30
2022-09-07T10:28:12.694Z,4.15
2022-09-07T10:30:47.440Z,4.10
2022-09-07T10:33:26.790Z,3.28
2022-09-07T10:36:38.882Z,4.28
2022-09-07T10:39:17.779Z,3.40
2022-09-07T10:41:57.240Z,3.50
2022-09-07T10:44:31.248Z,3.83
2022-09-07T10:47:05.568Z,3.80
2022-09-07T10:50:21.997Z,4.13
2022-09-07T10:52:44.359Z,2.60
2022-09-07T10:55:32.263Z,3.20
2022-09-07T10:59:04.243Z,3.00
2022-09-07T11:01:53.069Z,2.50
2022-09-07T11:04:59.558Z,2.83
2022-09-07T11:08:00.674Z,2.50
2022-09-07T11:11:06.269Z,2.35
2022-09-07T11:14:01.762Z,1.85
2022-09-07T11:19:39.240Z,1.88
2022-09-07T11:22:16.087Z,2.13
2022-09-07T11:25:29.038Z,1.90
2022-09-07T11:27:48.548Z,1.90
2022-09-07T11:30:28.648Z,1.80
2022-09-07T11:32:59.546Z,2.38
2022-09-07T11:35:55.398Z,2.28
2022-09-07T11:38:35.917Z,2.17
2022-09-07T11:41:26.917Z,1.80
2022-09-07T11:44:03.100Z,1.90
2022-09-07T11:46:36.873Z,2.60
2022-09-07T11:49:07.548Z,2.70
2022-09-07T11:51:42.467Z,2.55
2022-09-07T11:54:32.237Z,2.75
2022-09-07T11:57:33.607Z,3.03
2022-09-07T12:00:17.187Z,2.50
2022-09-07T12:03:14.923Z,2.67
2022-09-07T12:06:29.618Z,3.22
2022-09-07T12:09:33.866Z,3.45
2022-09-07T12:12:12.916Z,2.97
2022-09-07T12:14:48.909Z,3.05
2022-09-07T12:17:53.054Z,3.38
2022-09-07T12:20:42.504Z,2.60
2022-09-07T12:23:25.016Z,3.30
2022-09-07T12:25:52.475Z,3.10
2022-09-07T12:28:25.306Z,3.45
2022-09-07T12:31:06.798Z,2.97
2022-09-07T12:33:37.295Z,4.25
2022-09-07T12:36:26.144Z,4.10
2022-09-07T12:39:20.611Z,4.32
2022-09-07T12:45:42.301Z,5.55
2022-09-07T12:48:15.383Z,7.00
2022-09-07T12:54:14.526Z,7.15
2022-09-07T13:00:05.662Z,7.10
2022-09-07T13:09:34.532Z,7.95
2022-09-07T13:15:33.482Z,7.28
2022-09-07T13:18:00.762Z,7.68
2022-09-07T13:20:35.008Z,8.10
2022-09-07T13:23:21.387Z,7.38
2022-09-07T13:25:51.062Z,9.48
2022-09-07T13:28:31.300Z,8.30
2022-09-07T13:31:29.087Z,9.48
2022-09-07T13:33:57.106Z,10.02
2022-09-07T13:36:30.133Z,11.00
2022-09-07T13:38:57.368Z,11.40
2022-09-07T13:42:02.175Z,11.70
2022-09-07T13:44:34.093Z,10.57
2022-09-07T13:47:41.654Z,12.30
2022-09-07T13:50:16.837Z,9.73
2022-09-07T13:53:25.202Z,13.73
2022-09-07T13:56:10.686Z,11.52
2022-09-07T13:58:48.411Z,12.00
2022-09-07T14:01:18.081Z,11.32
2022-09-07T14:03:52.414Z,12.07
2022-09-07T14:06:22.160Z,11.82
2022-09-07T14:08:55.238Z,12.18
2022-09-07T14:11:28.180Z,12.07
2022-09-07T14:14:25.993Z,10.50
2022-09-07T14:17:06.044Z,13.23
2022-09-07T14:19:39.488Z,10.88
2022-09-07T14:22:16.507Z,9.38
2022-09-07T14:24:58.330Z,10.93
2022-09-07T14:27:26.537Z,10.40
2022-09-07T14:29:53.364Z,11.20
2022-09-07T14:32:24.932Z,9.32
2022-09-07T14:34:52.495Z,8.75
2022-09-07T14:37:22.125Z,10.20
2022-09-07T14:39:50.716Z,9.48
2022-09-07T14:42:23.722Z,12.45
2022-09-07T14:44:53.259Z,10.73
2022-09-07T14:47:30.199Z,11.48
2022-09-07T14:50:05.346Z,11.50
2022-09-07T14:52:42.423Z,9.32
2022-09-07T14:55:30.882Z,11.43
2022-09-07T14:58:11.204Z,11.80
2022-09-07T15:00:39.104Z,10.98
2022-09-07T15:03:33.119Z,12.82
2022-09-07T15:06:01.852Z,10.63
2022-09-07T15:08:46.165Z,9.80
2022-09-07T15:11:39.218Z,9.18
2022-09-07T15:14:10.213Z,8.15
2022-09-07T15:16:43.189Z,7.97
2022-09-07T15:19:15.842Z,8.98
2022-09-07T15:21:44.058Z,11.63
2022-09-07T15:24:11.737Z,9.00
2022-09-07T15:27:02.901Z,10.13
2022-09-07T15:29:30.633Z,9.32
2022-09-07T15:32:03.843Z,10.77
2022-09-07T15:34:32.677Z,10.90
2022-09-07T15:37:01.742Z,10.05
2022-09-07T15:39:29.928Z,9.82
2022-09-07T15:41:58.218Z,9.25
2022-09-07T15:44:28.657Z,10.43
2022-09-07T15:49:50.004Z,7.72
2022-09-07T15:52:18.388Z,8.32
2022-09-07T15:54:45.306Z,7.68
2022-09-07T15:59:59.128Z,8.88
2022-09-07T16:05:13.120Z,7.88
2022-09-07T16:10:31.043Z,10.80
2022-09-07T16:13:03.234Z,9.55
2022-09-07T16:15:45.175Z,9.15
2022-09-07T16:18:16.435Z,9.27
2022-09-07T16:20:44.405Z,10.38
2022-09-07T16:23:14.228Z,8.43
2022-09-07T16:25:43.248Z,8.70
2022-09-07T16:28:10.837Z,9.65
2022-09-07T16:30:41.113Z,8.70
2022-09-07T16:33:08.315Z,9.40
2022-09-07T16:35:35.409Z,8.98
2022-09-07T16:40:50.877Z,9.75
2022-09-07T16:43:18.003Z,8.60
2022-09-07T16:48:33.899Z,9.10
2022-09-07T16:51:02.728Z,9.50
2022-09-07T16:53:34.266Z,8.38
2022-09-07T16:56:16.896Z,8.93
2022-09-07T16:58:48.086Z,9.95
2022-09-07T17:01:18.206Z,9.98
2022-09-07T17:03:45.334Z,10.40
2022-09-07T17:06:13.652Z,9.38
2022-09-07T17:08:41.423Z,10.38
2022-09-07T17:11:11.258Z,10.20
2022-09-07T17:13:39.797Z,10.52
2022-09-07T17:16:19.931Z,9.68
2022-09-07T17:21:37.171Z,9.40
2022-09-07T17:24:06.173Z,10.13
2022-09-07T17:26:33.053Z,10.07
2022-09-07T17:29:00.996Z,10.25
2022-09-07T17:34:20.344Z,9.90
2022-09-07T17:36:47.797Z,9.73
2022-09-07T17:39:17.277Z,8.55
2022-09-07T17:41:46.425Z,8.70
2022-09-07T17:44:13.429Z,8.50
2022-09-07T17:46:40.360Z,7.57
2022-09-07T17:49:10.147Z,7.97
2022-09-07T17:51:37.090Z,7.55
2022-09-07T17:54:12.929Z,7.63
2022-09-07T17:56:41.340Z,8.63
2022-09-07T18:01:56.517Z,7.28
2022-09-07T18:04:24.217Z,7.97
2022-09-07T18:06:51.676Z,7.40
2022-09-07T18:09:19.786Z,7.45
2022-09-07T18:11:48.573Z,7.28
2022-09-07T18:14:16.514Z,7.25
2022-09-07T18:16:45.225Z,7.32
2022-09-07T18:19:13.370Z,6.50
2022-09-07T18:21:43.092Z,6.30
2022-09-07T18:24:24.140Z,6.35
2022-09-07T18:26:53.436Z,7.25
2022-09-07T18:29:33.034Z,7.93
2022-09-07T18:32:05.732Z,8.07
2022-09-07T18:34:35.042Z,7.97
2022-09-07T18:37:02.388Z,7.78
2022-09-07T18:39:29.831Z,7.07
2022-09-07T18:41:56.845Z,7.05
2022-09-07T18:47:21.097Z,7.63
2022-09-07T18:49:51.083Z,7.53
2022-09-07T18:55:07.203Z,8.95
2022-09-07T18:57:34.282Z,9.82
2022-09-07T19:00:01.193Z,9.15
2022-09-07T19:02:28.195Z,8.82
2022-09-07T19:07:41.940Z,8.27
2022-09-07T19:10:11.056Z,7.47
2022-09-07T19:12:39.174Z,7.25
2022-09-07T19:15:07.843Z,11.63
2022-09-07T19:17:34.689Z,10.70
2022-09-07T19:20:01.565Z,9.30
2022-09-07T19:22:28.344Z,9.27
2022-09-07T19:24:55.179Z,7.60
2022-09-07T19:27:22.042Z,7.93
2022-09-07T19:29:49.403Z,9.35
2022-09-07T19:32:17.272Z,9.65
2022-09-07T19:34:45.461Z,9.95
2022-09-07T19:37:13.515Z,9.05
2022-09-07T19:39:40.409Z,11.73
2022-09-07T19:42:07.487Z,11.18
2022-09-07T19:44:34.949Z,10.95
2022-09-07T19:47:02.056Z,11.65
2022-09-07T19:49:29.061Z,10.68
2022-09-07T19:51:55.857Z,10.00
2022-09-07T19:54:22.650Z,10.15
2022-09-07T19:56:49.629Z,10.25
2022-09-07T19:59:19.133Z,10.88
2022-09-07T20:01:48.217Z,11.77
2022-09-07T20:04:20.692Z,10.57
2022-09-07T20:06:50.158Z,9.43
2022-09-07T20:09:20.652Z,9.82
2022-09-07T20:11:48.150Z,9.20
2022-09-07T20:14:16.524Z,10.48
2022-09-07T20:16:43.732Z,12.73
2022-09-07T20:19:17.403Z,13.40
2022-09-07T20:21:44.533Z,12.93
2022-09-07T20:24:22.190Z,11.05
2022-09-07T20:26:49.363Z,12.80
2022-09-07T20:29:27.198Z,12.82
2022-09-07T20:31:55.132Z,10.80
2022-09-07T20:34:22.302Z,11.02
2022-09-07T20:36:50.114Z,11.20
2022-09-07T20:39:17.208Z,11.77
2022-09-07T20:41:44.426Z,10.65
2022-09-07T20:44:11.388Z,11.20
2022-09-07T20:46:38.421Z,11.38
2022-09-07T20:49:05.324Z,11.48
2022-09-07T20:51:32.532Z,13.27
2022-09-07T20:53:59.452Z,13.85
2022-09-07T20:56:28.212Z,20.60
2022-09-07T20:59:00.454Z,19.10
2022-09-07T21:01:28.795Z,17.70
2022-09-07T21:03:58.157Z,19.92
2022-09-07T21:06:26.855Z,19.13
2022-09-07T21:08:54.821Z,20.40
2022-09-07T21:11:27.362Z,17.15
2022-09-07T21:13:59.714Z,16.70
2022-09-07T21:16:27.240Z,15.73
2022-09-07T21:18:56.485Z,20.40
2022-09-07T21:21:24.738Z,21.00
2022-09-07T21:23:56.833Z,19.60
2022-09-07T21:26:24.215Z,24.20
2022-09-07T21:28:59.770Z,25.02
2022-09-07T21:31:27.603Z,20.15
2022-09-07T21:33:56.550Z,17.90
2022-09-07T21:36:24.141Z,15.60
2022-09-07T21:38:51.251Z,15.30
2022-09-07T21:41:23.690Z,19.98
2022-09-07T21:43:55.415Z,15.18
2022-09-07T21:46:22.592Z,14.85
2022-09-07T21:48:49.459Z,13.88
2022-09-07T21:51:16.924Z,14.20
2022-09-07T21:53:44.165Z,13.77
2022-09-07T21:56:14.001Z,14.02
2022-09-07T21:58:41.555Z,14.80
2022-09-07T22:01:12.014Z,18.20
2022-09-07T22:03:40.341Z,21.75
2022-09-07T22:06:08.335Z,22.70
2022-09-07T22:08:36.434Z,23.15
2022-09-07T22:11:23.513Z,23.67
2022-09-07T22:13:55.532Z,24.85
2022-09-07T22:16:22.705Z,19.20
2022-09-07T22:18:50.101Z,16.83
2022-09-07T22:21:19.845Z,17.67
2022-09-07T22:23:49.846Z,14.63
2022-09-07T22:26:20.554Z,15.80
2022-09-07T22:28:47.485Z,15.50
2022-09-07T22:31:19.824Z,18.02
2022-09-07T22:33:48.310Z,19.13
2022-09-07T22:36:17.936Z,27.20
2022-09-07T22:38:46.847Z,30.02
2022-09-07T22:41:17.079Z,22.80
2022-09-07T22:43:45.161Z,22.63
2022-09-07T22:46:12.763Z,21.60
2022-09-07T22:48:40.695Z,17.20
2022-09-07T22:51:08.839Z,17.00
2022-09-07T22:53:38.835Z,21.40
2022-09-07T22:56:11.258Z,20.23
2022-09-07T22:58:38.780Z,24.08
2022-09-07T23:01:06.358Z,29.88
2022-09-07T23:03:35.066Z,30.77
2022-09-07T23:06:03.083Z,35.92
2022-09-07T23:08:30.457Z,18.70
2022-09-07T23:11:05.023Z,19.23
2022-09-07T23:13:33.038Z,27.37
2022-09-07T23:16:04.631Z,26.83
2022-09-07T23:18:31.803Z,24.92
2022-09-07T23:21:00.648Z,17.83
2022-09-07T23:23:28.582Z,16.60
2022-09-07T23:25:55.413Z,19.75
2022-09-07T23:28:22.349Z,20.40
2022-09-07T23:30:50.746Z,23.88
2022-09-07T23:33:17.703Z,17.88
2022-09-07T23:35:56.129Z,28.70
2022-09-07T23:38:23.445Z,32.17
2022-09-07T23:40:50.396Z,25.42
2022-09-07T23:43:17.263Z,23.15
2022-09-07T23:45:44.047Z,29.58
2022-09-07T23:48:10.862Z,26.40
2022-09-07T23:50:37.629Z,29.13
2022-09-07T23:53:04.441Z,29.08
2022-09-07T23:55:31.458Z,38.20
2022-09-07T23:57:58.404Z,34.15
